Fuji Maru — JD2030 — position and weather

sailwx.info

Track history (hours):
 
Tides and Currents Weather Stations Pressure Air Temp Water Temp Dewpoint Dewpoint Depression Visibility Wind Speed Wind Dir Waves Ship Positions

Fuji Maru

Last reported at 2015-Jul-28 02:28 UTC. Time now 2015-Jul-28 03:32 UTC.
Position N 35°39' E 139°46'.

Length 38 m; draft 4.4 m.

Type: Tug. MMSI: 431001102.

Date/timePositionNaut miles runAvg speedWind from/ knotsBaromVisibWave heightAir tempDewpointWater temp
2015-Jul-28 02:28N 35°39' E 139°46'0 0.0
2015-Jul-28 01:28N 35°39' E 139°46'2 2.6
2015-Jul-28 00:31N 35°37' E 139°47'1 1.5
2015-Jul-27 23:33N 35°35' E 139°47'1 0.7
2015-Jul-27 22:27N 35°36' E 139°46'1 1.6
2015-Jul-27 21:33N 35°35' E 139°48'4 3.6
2015-Jul-27 20:34N 35°38' E 139°46'1 0.8
2015-Jul-27 19:30N 35°39' E 139°46'0 0.1
2015-Jul-27 18:33N 35°39' E 139°46'0 0.0
2015-Jul-27 17:33N 35°39' E 139°46'0 0.0
2015-Jul-27 16:33N 35°39' E 139°46'0 0.0
2015-Jul-27 15:33N 35°39' E 139°46'0 0.0
2015-Jul-27 14:33N 35°39' E 139°46'0 0.0
2015-Jul-27 13:33N 35°39' E 139°46'0 0.0
2015-Jul-27 12:24N 35°39' E 139°46'0 0.1
2015-Jul-27 11:30N 35°39' E 139°46'0 0.1
2015-Jul-27 10:33N 35°39' E 139°46'0 0.0
2015-Jul-27 09:30N 35°39' E 139°46'0 0.0
2015-Jul-27 08:33N 35°39' E 139°46'0 0.0
2015-Jul-27 07:33N 35°39' E 139°46'0 0.0
2015-Jul-27 06:33N 35°39' E 139°46'0 0.0
2015-Jul-27 05:33N 35°39' E 139°46'0 0.0
2015-Jul-27 04:33N 35°39' E 139°46'3 3.3
2015-Jul-27 03:33N 35°36' E 139°47'0 0.5
2015-Jul-27 02:34N 35°36' E 139°47'0 0.4
2015-Jul-27 01:33N 35°36' E 139°47'0 0.4
2015-Jul-27 00:33N 35°36' E 139°46'3 2.6
2015-Jul-26 23:32N 35°39' E 139°46'0 0.0
2015-Jul-26 22:32N 35°39' E 139°46'0 0.0
2015-Jul-26 21:32N 35°39' E 139°46'0 0.0
2015-Jul-26 20:32N 35°39' E 139°46'0 0.0
2015-Jul-26 19:32N 35°39' E 139°46'0 0.0
2015-Jul-26 18:32N 35°39' E 139°46'0 0.0
2015-Jul-26 17:32N 35°39' E 139°46'0 0.0
2015-Jul-26 16:32N 35°39' E 139°46'0 0.0
2015-Jul-26 15:32N 35°39' E 139°46'0 0.0
2015-Jul-26 14:32N 35°39' E 139°46'0 0.0
2015-Jul-26 13:32N 35°39' E 139°46'0 0.0
2015-Jul-26 12:32N 35°39' E 139°46'0 0.0
2015-Jul-26 11:32N 35°39' E 139°46'0 0.0
2015-Jul-26 10:32N 35°39' E 139°46'0 0.0
2015-Jul-26 09:32N 35°39' E 139°46'0 0.0
2015-Jul-26 08:32N 35°39' E 139°46'0 0.0
2015-Jul-26 07:32N 35°39' E 139°46'0 0.0
2015-Jul-26 06:32N 35°39' E 139°46'1 0.6
2015-Jul-26 05:32N 35°38' E 139°45'0 0.0
2015-Jul-26 04:32N 35°38' E 139°45'0 0.0
2015-Jul-26 03:32N 35°38' E 139°45'0 0.0
2015-Jul-26 02:32N 35°38' E 139°45'0 0.0
2015-Jul-26 01:32N 35°38' E 139°45'0 0.0
2015-Jul-26 00:32N 35°38' E 139°45'0 0.0
2015-Jul-25 23:32N 35°38' E 139°45'3 3.3
2015-Jul-25 22:33N 35°35' E 139°47'2 2.4
2015-Jul-25 21:33N 35°37' E 139°46'1 1.4
2015-Jul-25 20:31N 35°39' E 139°46'0 0.0
2015-Jul-25 19:31N 35°39' E 139°46'0 0.0
2015-Jul-25 18:31N 35°39' E 139°46'0 0.0
2015-Jul-25 17:31N 35°39' E 139°46'0 0.0
2015-Jul-25 16:31N 35°39' E 139°46'0 0.0
2015-Jul-25 15:28N 35°39' E 139°46'0 0.0
2015-Jul-25 14:28N 35°39' E 139°46'0 0.0
2015-Jul-25 13:28N 35°39' E 139°46'0 0.0
2015-Jul-25 12:31N 35°39' E 139°46'0 0.0
2015-Jul-25 11:31N 35°39' E 139°46'0 0.0
2015-Jul-25 10:31N 35°39' E 139°46'2 2.0
2015-Jul-25 09:33N 35°37' E 139°46'1 0.6
2015-Jul-25 08:34N 35°37' E 139°47'2 2.2
2015-Jul-25 07:32N 35°39' E 139°46'0 0.0
2015-Jul-25 06:29N 35°39' E 139°46'0 0.0
2015-Jul-25 05:29N 35°39' E 139°46'0 0.0
2015-Jul-25 04:29N 35°39' E 139°46'0 0.0
2015-Jul-25 03:29N 35°39' E 139°46'0 0.0
2015-Jul-25 02:32N 35°39' E 139°46'0 0.0
2015-Jul-25 01:32N 35°39' E 139°46'0 0.0
2015-Jul-25 00:29N 35°39' E 139°46'0 0.0
2015-Jul-24 23:32N 35°39' E 139°46'2 2.2
2015-Jul-24 22:33N 35°37' E 139°46'4 3.7
2015-Jul-24 21:33N 35°34' E 139°49'2 2.4
2015-Jul-24 20:33N 35°35' E 139°47'4 3.4
2015-Jul-24 19:32N 35°39' E 139°46'0 0.0
2015-Jul-24 18:32N 35°39' E 139°46'0 0.0
2015-Jul-24 17:32N 35°39' E 139°46'0 0.0
2015-Jul-24 16:32N 35°39' E 139°46'0 0.0
2015-Jul-24 15:32N 35°39' E 139°46'0 0.0
2015-Jul-24 14:32N 35°39' E 139°46'0 0.0
2015-Jul-24 13:32N 35°39' E 139°46'0 0.0
2015-Jul-24 12:32N 35°39' E 139°46'0 0.0
2015-Jul-24 11:32N 35°39' E 139°46'0 0.1
2015-Jul-24 10:32N 35°39' E 139°46'0 0.1
2015-Jul-24 09:29N 35°39' E 139°46'0 0.0
2015-Jul-24 08:32N 35°39' E 139°46'0 0.0
2015-Jul-24 07:32N 35°39' E 139°46'0 0.0
2015-Jul-24 06:32N 35°39' E 139°46'3 3.4
2015-Jul-24 05:33N 35°36' E 139°47'1 1.4
2015-Jul-24 04:34N 35°37' E 139°46'2 1.9
2015-Jul-24 03:29N 35°39' E 139°46'0 0.0
2015-Jul-24 02:32N 35°39' E 139°46'0 0.0
2015-Jul-24 01:32N 35°39' E 139°46'0 0.0
2015-Jul-24 00:32N 35°39' E 139°46'0 0.0
2015-Jul-23 23:32N 35°39' E 139°46'0 0.0
2015-Jul-23 22:32N 35°39' E 139°46'0 0.0
2015-Jul-23 21:32N 35°39' E 139°46'0 0.0
2015-Jul-23 20:32N 35°39' E 139°46'0 0.0
2015-Jul-23 19:32N 35°39' E 139°46'0 0.0
2015-Jul-23 18:32N 35°39' E 139°46'0 0.0
2015-Jul-23 17:32N 35°39' E 139°46'0 0.0
2015-Jul-23 16:32N 35°39' E 139°46'0 0.0
2015-Jul-23 15:29N 35°39' E 139°46'0 0.0
2015-Jul-23 14:32N 35°39' E 139°46'3 3.2
2015-Jul-23 13:32N 35°36' E 139°48'1 1.0
2015-Jul-23 12:33N 35°36' E 139°46'1 0.5
2015-Jul-23 11:32N 35°36' E 139°46'3 3.1
2015-Jul-23 10:29N 35°34' E 139°50'3 2.5
2015-Jul-23 09:14N 35°36' E 139°47'2 3.2
2015-Jul-23 08:33N 35°34' E 139°48'2 1.6
2015-Jul-23 07:33N 35°36' E 139°47'2 1.7
2015-Jul-23 06:33N 35°37' E 139°46'2 1.7
2015-Jul-23 05:31N 35°39' E 139°46'0 0.0
2015-Jul-23 04:31N 35°39' E 139°46'0 0.0
2015-Jul-23 03:25N 35°39' E 139°46'0 0.0
2015-Jul-23 02:25N 35°39' E 139°46'0 0.0
2015-Jul-23 01:13N 35°39' E 139°46'0 0.0
2015-Jul-23 00:19N 35°39' E 139°46'2 3.1
2015-Jul-22 23:33N 35°37' E 139°47'3 2.5
2015-Jul-22 22:29N 35°39' E 139°46'5 5.8
2015-Jul-22 21:34N 35°34' E 139°49'5 4.8
2015-Jul-22 20:27N 35°39' E 139°46'0 0.0
2015-Jul-22 19:33N 35°39' E 139°46'0 0.0
2015-Jul-22 18:18N 35°39' E 139°46'0 0.0
2015-Jul-22 17:30N 35°39' E 139°46'0 0.0
2015-Jul-22 16:33N 35°39' E 139°46'0 0.0
2015-Jul-22 15:30N 35°39' E 139°46'0 0.0
2015-Jul-22 14:33N 35°39' E 139°46'0 0.0
2015-Jul-22 13:33N 35°39' E 139°46'0 0.0
2015-Jul-22 12:33N 35°39' E 139°46'0 0.0
2015-Jul-22 11:33N 35°39' E 139°46'6 5.7
2015-Jul-22 10:33N 35°34' E 139°49'3 2.4
2015-Jul-22 09:26N 35°36' E 139°47'1 1.3
2015-Jul-22 08:32N 35°37' E 139°47'2 1.6
2015-Jul-22 07:29N 35°38' E 139°46'2 1.9
2015-Jul-22 06:32N 35°36' E 139°46'2 2.4
2015-Jul-22 05:31N 35°39' E 139°46'0 0.0
2015-Jul-22 04:31N 35°39' E 139°46'0 0.0
2015-Jul-22 03:31N 35°39' E 139°46'0 0.0
2015-Jul-22 02:28N 35°39' E 139°46'0 0.0
2015-Jul-22 01:32N 35°39' E 139°46'3 3.1
2015-Jul-22 00:33N 35°36' E 139°47'0 0.4
2015-Jul-21 23:31N 35°36' E 139°47'1 1.3
2015-Jul-21 22:27N 35°37' E 139°46'2 2.1
2015-Jul-21 21:28N 35°39' E 139°46'0 0.0
2015-Jul-21 20:25N 35°39' E 139°46'0 0.0
2015-Jul-21 19:31N 35°39' E 139°46'0 0.0
2015-Jul-21 17:31N 35°39' E 139°46'0 0.0
2015-Jul-21 16:31N 35°39' E 139°46'0 0.0
2015-Jul-21 14:28N 35°39' E 139°46'0 0.0
2015-Jul-21 13:31N 35°39' E 139°46'0 0.0
2015-Jul-21 12:22N 35°39' E 139°46'0 0.0
2015-Jul-21 11:25N 35°39' E 139°46'0 0.0
2015-Jul-21 10:28N 35°39' E 139°46'3 2.9
2015-Jul-21 09:31N 35°36' E 139°46'2 1.8
2015-Jul-21 08:33N 35°38' E 139°46'1 1.0
2015-Jul-21 07:29N 35°39' E 139°46'0 0.0
2015-Jul-21 06:29N 35°39' E 139°46'0 0.0
2015-Jul-21 05:29N 35°39' E 139°46'0 0.0
2015-Jul-21 04:32N 35°39' E 139°46'0 0.0
2015-Jul-21 03:26N 35°39' E 139°46'0 0.0
2015-Jul-21 02:29N 35°39' E 139°46'0 0.0
2015-Jul-21 01:32N 35°39' E 139°46'2 2.5
2015-Jul-21 00:32N 35°37' E 139°47'2 2.1
2015-Jul-20 23:34N 35°35' E 139°48'3 2.6
2015-Jul-20 22:33N 35°37' E 139°46'2 1.8
2015-Jul-20 21:33N 35°35' E 139°47'4 3.8
2015-Jul-20 20:31N 35°39' E 139°46'0 0.0
2015-Jul-20 19:31N 35°39' E 139°46'0 0.0
2015-Jul-20 18:31N 35°39' E 139°46'0 0.0
2015-Jul-20 17:31N 35°39' E 139°46'0 0.0
2015-Jul-20 16:28N 35°39' E 139°46'0 0.0
2015-Jul-20 15:31N 35°39' E 139°46'0 0.0
2015-Jul-20 14:31N 35°39' E 139°46'0 0.0
2015-Jul-20 13:31N 35°39' E 139°46'0 0.0
2015-Jul-20 12:31N 35°39' E 139°46'0 0.0
2015-Jul-20 11:28N 35°39' E 139°46'0 0.0
2015-Jul-20 10:31N 35°39' E 139°46'0 0.0
2015-Jul-20 09:31N 35°39' E 139°46'3 2.6
2015-Jul-20 08:33N 35°36' E 139°47'3 2.5
2015-Jul-20 07:32N 35°39' E 139°46'0 0.0
2015-Jul-20 06:32N 35°39' E 139°46'0 0.0
2015-Jul-20 05:32N 35°39' E 139°46'0 0.0
2015-Jul-20 04:26N 35°39' E 139°46'0 0.0
2015-Jul-20 03:32N 35°39' E 139°46'0 0.0
2015-Jul-20 02:32N 35°39' E 139°46'0 0.0
2015-Jul-20 01:32N 35°39' E 139°46'0 0.0
2015-Jul-20 00:32N 35°39' E 139°46'1 0.6
2015-Jul-19 23:33N 35°38' E 139°46'3 3.3
2015-Jul-19 22:33N 35°35' E 139°47'2 2.3
2015-Jul-19 21:33N 35°34' E 139°50'3 3.4
2015-Jul-19 20:33N 35°36' E 139°47'1 0.6
2015-Jul-19 19:31N 35°36' E 139°46'3 2.6
2015-Jul-19 18:31N 35°39' E 139°46'0 0.0
2015-Jul-19 17:31N 35°39' E 139°46'0 0.0
2015-Jul-19 16:31N 35°39' E 139°46'0 0.0
2015-Jul-19 15:28N 35°39' E 139°46'0 0.0
2015-Jul-19 14:31N 35°39' E 139°46'0 0.0
2015-Jul-19 13:28N 35°39' E 139°46'0 0.0
2015-Jul-19 12:31N 35°39' E 139°46'0 0.0
2015-Jul-19 11:31N 35°39' E 139°46'0 0.0
2015-Jul-19 10:28N 35°39' E 139°46'0 0.0
2015-Jul-19 09:31N 35°39' E 139°46'0 0.0
2015-Jul-19 08:28N 35°39' E 139°46'0 0.0
2015-Jul-19 07:31N 35°39' E 139°46'0 0.0
2015-Jul-19 06:31N 35°39' E 139°46'0 0.0
2015-Jul-19 05:28N 35°39' E 139°46'0 0.0
2015-Jul-19 04:31N 35°39' E 139°46'0 0.0
2015-Jul-19 00:31N 35°39' E 139°46'0 0.0
2015-Jul-18 23:31N 35°39' E 139°46'0 0.0
2015-Jul-18 22:28N 35°39' E 139°46'0 0.0
2015-Jul-18 21:25N 35°39' E 139°46'0 0.0
2015-Jul-18 20:25N 35°39' E 139°46'0 0.0
2015-Jul-18 19:31N 35°39' E 139°46'0 0.0
2015-Jul-18 18:25N 35°39' E 139°46'0 0.0
2015-Jul-18 17:22N 35°39' E 139°46'0 0.0
2015-Jul-18 16:31N 35°39' E 139°46'0 0.0
2015-Jul-18 15:31N 35°39' E 139°46'0 0.0
2015-Jul-18 14:31N 35°39' E 139°46'0 0.0
2015-Jul-18 13:31N 35°39' E 139°46'0 0.0
2015-Jul-18 12:28N 35°39' E 139°46'0 0.0
2015-Jul-18 11:28N 35°39' E 139°46'0 0.0
2015-Jul-18 10:19N 35°39' E 139°46'0 0.0
2015-Jul-18 09:28N 35°39' E 139°46'0 0.0
2015-Jul-18 08:31N 35°39' E 139°46'0 0.0
2015-Jul-18 07:31N 35°39' E 139°46'0 0.0
2015-Jul-18 06:22N 35°39' E 139°46'0 0.0
2015-Jul-18 05:22N 35°39' E 139°46'0 0.0
2015-Jul-18 04:31N 35°39' E 139°46'0 0.0
2015-Jul-18 03:31N 35°39' E 139°46'  
Track history (hours):
 
Tides and Currents Weather Stations Pressure Air Temp Water Temp Dewpoint Dewpoint Depression Visibility Wind Speed Wind Dir Waves Ship Positions

Fuji Maru

Last reported at 2015-Jul-28 02:28 UTC. Time now 2015-Jul-28 03:32 UTC.
Position N 35°39' E 139°46'.

Length 38 m; draft 4.4 m.

Type: Tug. MMSI: 431001102.

Date/timePositionNaut miles runAvg speedWind from/ knotsBaromVisibWave heightAir tempDewpointWater temp
2015-Jul-28 02:28N 35°39' E 139°46'0 0.0
2015-Jul-28 01:28N 35°39' E 139°46'2 2.6
2015-Jul-28 00:31N 35°37' E 139°47'1 1.5
2015-Jul-27 23:33N 35°35' E 139°47'1 0.7
2015-Jul-27 22:27N 35°36' E 139°46'1 1.6
2015-Jul-27 21:33N 35°35' E 139°48'4 3.6
2015-Jul-27 20:34N 35°38' E 139°46'1 0.8
2015-Jul-27 19:30N 35°39' E 139°46'0 0.1
2015-Jul-27 18:33N 35°39' E 139°46'0 0.0
2015-Jul-27 17:33N 35°39' E 139°46'0 0.0
2015-Jul-27 16:33N 35°39' E 139°46'0 0.0
2015-Jul-27 15:33N 35°39' E 139°46'0 0.0
2015-Jul-27 14:33N 35°39' E 139°46'0 0.0
2015-Jul-27 13:33N 35°39' E 139°46'0 0.0
2015-Jul-27 12:24N 35°39' E 139°46'0 0.1
2015-Jul-27 11:30N 35°39' E 139°46'0 0.1
2015-Jul-27 10:33N 35°39' E 139°46'0 0.0
2015-Jul-27 09:30N 35°39' E 139°46'0 0.0
2015-Jul-27 08:33N 35°39' E 139°46'0 0.0
2015-Jul-27 07:33N 35°39' E 139°46'0 0.0
2015-Jul-27 06:33N 35°39' E 139°46'0 0.0
2015-Jul-27 05:33N 35°39' E 139°46'0 0.0
2015-Jul-27 04:33N 35°39' E 139°46'3 3.3
2015-Jul-27 03:33N 35°36' E 139°47'0 0.5
2015-Jul-27 02:34N 35°36' E 139°47'0 0.4
2015-Jul-27 01:33N 35°36' E 139°47'0 0.4
2015-Jul-27 00:33N 35°36' E 139°46'3 2.6
2015-Jul-26 23:32N 35°39' E 139°46'0 0.0
2015-Jul-26 22:32N 35°39' E 139°46'0 0.0
2015-Jul-26 21:32N 35°39' E 139°46'0 0.0
2015-Jul-26 20:32N 35°39' E 139°46'0 0.0
2015-Jul-26 19:32N 35°39' E 139°46'0 0.0
2015-Jul-26 18:32N 35°39' E 139°46'0 0.0
2015-Jul-26 17:32N 35°39' E 139°46'0 0.0
2015-Jul-26 16:32N 35°39' E 139°46'0 0.0
2015-Jul-26 15:32N 35°39' E 139°46'0 0.0
2015-Jul-26 14:32N 35°39' E 139°46'0 0.0
2015-Jul-26 13:32N 35°39' E 139°46'0 0.0
2015-Jul-26 12:32N 35°39' E 139°46'0 0.0
2015-Jul-26 11:32N 35°39' E 139°46'0 0.0
2015-Jul-26 10:32N 35°39' E 139°46'0 0.0
2015-Jul-26 09:32N 35°39' E 139°46'0 0.0
2015-Jul-26 08:32N 35°39' E 139°46'0 0.0
2015-Jul-26 07:32N 35°39' E 139°46'0 0.0
2015-Jul-26 06:32N 35°39' E 139°46'1 0.6
2015-Jul-26 05:32N 35°38' E 139°45'0 0.0
2015-Jul-26 04:32N 35°38' E 139°45'0 0.0
2015-Jul-26 03:32N 35°38' E 139°45'0 0.0
2015-Jul-26 02:32N 35°38' E 139°45'0 0.0
2015-Jul-26 01:32N 35°38' E 139°45'0 0.0
2015-Jul-26 00:32N 35°38' E 139°45'0 0.0
2015-Jul-25 23:32N 35°38' E 139°45'3 3.3
2015-Jul-25 22:33N 35°35' E 139°47'2 2.4
2015-Jul-25 21:33N 35°37' E 139°46'1 1.4
2015-Jul-25 20:31N 35°39' E 139°46'0 0.0
2015-Jul-25 19:31N 35°39' E 139°46'0 0.0
2015-Jul-25 18:31N 35°39' E 139°46'0 0.0
2015-Jul-25 17:31N 35°39' E 139°46'0 0.0
2015-Jul-25 16:31N 35°39' E 139°46'0 0.0
2015-Jul-25 15:28N 35°39' E 139°46'0 0.0
2015-Jul-25 14:28N 35°39' E 139°46'0 0.0
2015-Jul-25 13:28N 35°39' E 139°46'0 0.0
2015-Jul-25 12:31N 35°39' E 139°46'0 0.0
2015-Jul-25 11:31N 35°39' E 139°46'0 0.0
2015-Jul-25 10:31N 35°39' E 139°46'2 2.0
2015-Jul-25 09:33N 35°37' E 139°46'1 0.6
2015-Jul-25 08:34N 35°37' E 139°47'2 2.2
2015-Jul-25 07:32N 35°39' E 139°46'0 0.0
2015-Jul-25 06:29N 35°39' E 139°46'0 0.0
2015-Jul-25 05:29N 35°39' E 139°46'0 0.0
2015-Jul-25 04:29N 35°39' E 139°46'0 0.0
2015-Jul-25 03:29N 35°39' E 139°46'0 0.0
2015-Jul-25 02:32N 35°39' E 139°46'0 0.0
2015-Jul-25 01:32N 35°39' E 139°46'0 0.0
2015-Jul-25 00:29N 35°39' E 139°46'0 0.0
2015-Jul-24 23:32N 35°39' E 139°46'2 2.2
2015-Jul-24 22:33N 35°37' E 139°46'4 3.7
2015-Jul-24 21:33N 35°34' E 139°49'2 2.4
2015-Jul-24 20:33N 35°35' E 139°47'4 3.4
2015-Jul-24 19:32N 35°39' E 139°46'0 0.0
2015-Jul-24 18:32N 35°39' E 139°46'0 0.0
2015-Jul-24 17:32N 35°39' E 139°46'0 0.0
2015-Jul-24 16:32N 35°39' E 139°46'0 0.0
2015-Jul-24 15:32N 35°39' E 139°46'0 0.0
2015-Jul-24 14:32N 35°39' E 139°46'0 0.0
2015-Jul-24 13:32N 35°39' E 139°46'0 0.0
2015-Jul-24 12:32N 35°39' E 139°46'0 0.0
2015-Jul-24 11:32N 35°39' E 139°46'0 0.1
2015-Jul-24 10:32N 35°39' E 139°46'0 0.1
2015-Jul-24 09:29N 35°39' E 139°46'0 0.0
2015-Jul-24 08:32N 35°39' E 139°46'0 0.0
2015-Jul-24 07:32N 35°39' E 139°46'0 0.0
2015-Jul-24 06:32N 35°39' E 139°46'3 3.4
2015-Jul-24 05:33N 35°36' E 139°47'1 1.4
2015-Jul-24 04:34N 35°37' E 139°46'2 1.9
2015-Jul-24 03:29N 35°39' E 139°46'0 0.0
2015-Jul-24 02:32N 35°39' E 139°46'0 0.0
2015-Jul-24 01:32N 35°39' E 139°46'0 0.0
2015-Jul-24 00:32N 35°39' E 139°46'0 0.0
2015-Jul-23 23:32N 35°39' E 139°46'0 0.0
2015-Jul-23 22:32N 35°39' E 139°46'0 0.0
2015-Jul-23 21:32N 35°39' E 139°46'0 0.0
2015-Jul-23 20:32N 35°39' E 139°46'0 0.0
2015-Jul-23 19:32N 35°39' E 139°46'0 0.0
2015-Jul-23 18:32N 35°39' E 139°46'0 0.0
2015-Jul-23 17:32N 35°39' E 139°46'0 0.0
2015-Jul-23 16:32N 35°39' E 139°46'0 0.0
2015-Jul-23 15:29N 35°39' E 139°46'0 0.0
2015-Jul-23 14:32N 35°39' E 139°46'3 3.2
2015-Jul-23 13:32N 35°36' E 139°48'1 1.0
2015-Jul-23 12:33N 35°36' E 139°46'1 0.5
2015-Jul-23 11:32N 35°36' E 139°46'3 3.1
2015-Jul-23 10:29N 35°34' E 139°50'3 2.5
2015-Jul-23 09:14N 35°36' E 139°47'2 3.2
2015-Jul-23 08:33N 35°34' E 139°48'2 1.6
2015-Jul-23 07:33N 35°36' E 139°47'2 1.7
2015-Jul-23 06:33N 35°37' E 139°46'2 1.7
2015-Jul-23 05:31N 35°39' E 139°46'0 0.0
2015-Jul-23 04:31N 35°39' E 139°46'0 0.0
2015-Jul-23 03:25N 35°39' E 139°46'0 0.0
2015-Jul-23 02:25N 35°39' E 139°46'0 0.0
2015-Jul-23 01:13N 35°39' E 139°46'0 0.0
2015-Jul-23 00:19N 35°39' E 139°46'2 3.1
2015-Jul-22 23:33N 35°37' E 139°47'3 2.5
2015-Jul-22 22:29N 35°39' E 139°46'5 5.8
2015-Jul-22 21:34N 35°34' E 139°49'5 4.8
2015-Jul-22 20:27N 35°39' E 139°46'0 0.0
2015-Jul-22 19:33N 35°39' E 139°46'0 0.0
2015-Jul-22 18:18N 35°39' E 139°46'0 0.0
2015-Jul-22 17:30N 35°39' E 139°46'0 0.0
2015-Jul-22 16:33N 35°39' E 139°46'0 0.0
2015-Jul-22 15:30N 35°39' E 139°46'0 0.0
2015-Jul-22 14:33N 35°39' E 139°46'0 0.0
2015-Jul-22 13:33N 35°39' E 139°46'0 0.0
2015-Jul-22 12:33N 35°39' E 139°46'0 0.0
2015-Jul-22 11:33N 35°39' E 139°46'6 5.7
2015-Jul-22 10:33N 35°34' E 139°49'3 2.4
2015-Jul-22 09:26N 35°36' E 139°47'1 1.3
2015-Jul-22 08:32N 35°37' E 139°47'2 1.6
2015-Jul-22 07:29N 35°38' E 139°46'2 1.9
2015-Jul-22 06:32N 35°36' E 139°46'2 2.4
2015-Jul-22 05:31N 35°39' E 139°46'0 0.0
2015-Jul-22 04:31N 35°39' E 139°46'0 0.0
2015-Jul-22 03:31N 35°39' E 139°46'0 0.0
2015-Jul-22 02:28N 35°39' E 139°46'0 0.0
2015-Jul-22 01:32N 35°39' E 139°46'3 3.1
2015-Jul-22 00:33N 35°36' E 139°47'0 0.4
2015-Jul-21 23:31N 35°36' E 139°47'1 1.3
2015-Jul-21 22:27N 35°37' E 139°46'2 2.1
2015-Jul-21 21:28N 35°39' E 139°46'0 0.0
2015-Jul-21 20:25N 35°39' E 139°46'0 0.0
2015-Jul-21 19:31N 35°39' E 139°46'0 0.0
2015-Jul-21 17:31N 35°39' E 139°46'0 0.0
2015-Jul-21 16:31N 35°39' E 139°46'0 0.0
2015-Jul-21 14:28N 35°39' E 139°46'0 0.0
2015-Jul-21 13:31N 35°39' E 139°46'0 0.0
2015-Jul-21 12:22N 35°39' E 139°46'0 0.0
2015-Jul-21 11:25N 35°39' E 139°46'0 0.0
2015-Jul-21 10:28N 35°39' E 139°46'3 2.9
2015-Jul-21 09:31N 35°36' E 139°46'2 1.8
2015-Jul-21 08:33N 35°38' E 139°46'1 1.0
2015-Jul-21 07:29N 35°39' E 139°46'0 0.0
2015-Jul-21 06:29N 35°39' E 139°46'0 0.0
2015-Jul-21 05:29N 35°39' E 139°46'0 0.0
2015-Jul-21 04:32N 35°39' E 139°46'0 0.0
2015-Jul-21 03:26N 35°39' E 139°46'0 0.0
2015-Jul-21 02:29N 35°39' E 139°46'0 0.0
2015-Jul-21 01:32N 35°39' E 139°46'2 2.5
2015-Jul-21 00:32N 35°37' E 139°47'2 2.1
2015-Jul-20 23:34N 35°35' E 139°48'3 2.6
2015-Jul-20 22:33N 35°37' E 139°46'2 1.8
2015-Jul-20 21:33N 35°35' E 139°47'4 3.8
2015-Jul-20 20:31N 35°39' E 139°46'0 0.0
2015-Jul-20 19:31N 35°39' E 139°46'0 0.0
2015-Jul-20 18:31N 35°39' E 139°46'0 0.0
2015-Jul-20 17:31N 35°39' E 139°46'0 0.0
2015-Jul-20 16:28N 35°39' E 139°46'0 0.0
2015-Jul-20 15:31N 35°39' E 139°46'0 0.0
2015-Jul-20 14:31N 35°39' E 139°46'0 0.0
2015-Jul-20 13:31N 35°39' E 139°46'0 0.0
2015-Jul-20 12:31N 35°39' E 139°46'0 0.0
2015-Jul-20 11:28N 35°39' E 139°46'0 0.0
2015-Jul-20 10:31N 35°39' E 139°46'0 0.0
2015-Jul-20 09:31N 35°39' E 139°46'3 2.6
2015-Jul-20 08:33N 35°36' E 139°47'3 2.5
2015-Jul-20 07:32N 35°39' E 139°46'0 0.0
2015-Jul-20 06:32N 35°39' E 139°46'0 0.0
2015-Jul-20 05:32N 35°39' E 139°46'0 0.0
2015-Jul-20 04:26N 35°39' E 139°46'0 0.0
2015-Jul-20 03:32N 35°39' E 139°46'0 0.0
2015-Jul-20 02:32N 35°39' E 139°46'0 0.0
2015-Jul-20 01:32N 35°39' E 139°46'0 0.0
2015-Jul-20 00:32N 35°39' E 139°46'1 0.6
2015-Jul-19 23:33N 35°38' E 139°46'3 3.3
2015-Jul-19 22:33N 35°35' E 139°47'2 2.3
2015-Jul-19 21:33N 35°34' E 139°50'3 3.4
2015-Jul-19 20:33N 35°36' E 139°47'1 0.6
2015-Jul-19 19:31N 35°36' E 139°46'3 2.6
2015-Jul-19 18:31N 35°39' E 139°46'0 0.0
2015-Jul-19 17:31N 35°39' E 139°46'0 0.0
2015-Jul-19 16:31N 35°39' E 139°46'0 0.0
2015-Jul-19 15:28N 35°39' E 139°46'0 0.0
2015-Jul-19 14:31N 35°39' E 139°46'0 0.0
2015-Jul-19 13:28N 35°39' E 139°46'0 0.0
2015-Jul-19 12:31N 35°39' E 139°46'0 0.0
2015-Jul-19 11:31N 35°39' E 139°46'0 0.0
2015-Jul-19 10:28N 35°39' E 139°46'0 0.0
2015-Jul-19 09:31N 35°39' E 139°46'0 0.0
2015-Jul-19 08:28N 35°39' E 139°46'0 0.0
2015-Jul-19 07:31N 35°39' E 139°46'0 0.0
2015-Jul-19 06:31N 35°39' E 139°46'0 0.0
2015-Jul-19 05:28N 35°39' E 139°46'0 0.0
2015-Jul-19 04:31N 35°39' E 139°46'0 0.0
2015-Jul-19 00:31N 35°39' E 139°46'0 0.0
2015-Jul-18 23:31N 35°39' E 139°46'0 0.0
2015-Jul-18 22:28N 35°39' E 139°46'0 0.0
2015-Jul-18 21:25N 35°39' E 139°46'0 0.0
2015-Jul-18 20:25N 35°39' E 139°46'0 0.0
2015-Jul-18 19:31N 35°39' E 139°46'0 0.0
2015-Jul-18 18:25N 35°39' E 139°46'0 0.0
2015-Jul-18 17:22N 35°39' E 139°46'0 0.0
2015-Jul-18 16:31N 35°39' E 139°46'0 0.0
2015-Jul-18 15:31N 35°39' E 139°46'0 0.0
2015-Jul-18 14:31N 35°39' E 139°46'0 0.0
2015-Jul-18 13:31N 35°39' E 139°46'0 0.0
2015-Jul-18 12:28N 35°39' E 139°46'0 0.0
2015-Jul-18 11:28N 35°39' E 139°46'0 0.0
2015-Jul-18 10:19N 35°39' E 139°46'0 0.0
2015-Jul-18 09:28N 35°39' E 139°46'0 0.0
2015-Jul-18 08:31N 35°39' E 139°46'0 0.0
2015-Jul-18 07:31N 35°39' E 139°46'0 0.0
2015-Jul-18 06:22N 35°39' E 139°46'0 0.0
2015-Jul-18 05:22N 35°39' E 139°46'0 0.0
2015-Jul-18 04:31N 35°39' E 139°46'0 0.0
2015-Jul-18 03:31N 35°39' E 139°46'  

Dump ship's entire track history